createdAt,value
2023-04-09T00:05:22.825Z,1023.93
2023-04-09T00:34:13.396Z,1023.9
2023-04-09T01:03:04.917Z,1023.87
2023-04-09T01:31:47.476Z,1023.95
2023-04-09T02:00:37.185Z,1024.09
2023-04-09T02:29:28.372Z,1024.1
2023-04-09T02:58:19.530Z,1023.83
2023-04-09T03:27:11.507Z,1023.79
2023-04-09T03:55:59.622Z,1023.65
2023-04-09T04:24:48.874Z,1023.67
2023-04-09T04:53:40.801Z,1023.8
2023-04-09T05:22:33.026Z,1023.88
2023-04-09T05:51:23.084Z,1023.84
2023-04-09T06:20:10.472Z,1023.94
2023-04-09T06:48:58.665Z,1024.17
2023-04-09T07:17:49.136Z,1024.28
2023-04-09T08:15:12.278Z,1024.57
2023-04-09T08:44:00.777Z,1024.54
2023-04-09T09:41:06.242Z,1024.37
2023-04-09T10:09:58.105Z,1024.13
2023-04-09T10:38:45.663Z,1024.05
2023-04-09T11:07:31.483Z,1024.07
2023-04-09T11:36:17.193Z,1023.89
2023-04-09T12:04:57.507Z,1023.78
2023-04-09T12:33:32.732Z,1023.61
2023-04-09T13:02:22.696Z,1023.33
2023-04-09T13:30:56.280Z,1023.11
2023-04-09T13:59:36.850Z,1022.85
2023-04-09T14:28:34.275Z,1022.51
2023-04-09T14:57:29.090Z,1022.51
2023-04-09T15:26:28.251Z,1022.3
2023-04-09T15:55:22.369Z,1022.28
2023-04-09T16:24:18.378Z,1022.17
2023-04-09T16:53:10.198Z,1022.07
2023-04-09T17:22:04.886Z,1022.16
2023-04-09T17:51:00.207Z,1022.28
2023-04-09T18:19:57.028Z,1022.54
2023-04-09T18:48:52.457Z,1022.63
2023-04-09T19:17:39.304Z,1022.79
2023-04-09T19:46:30.490Z,1022.9
2023-04-09T20:15:24.838Z,1022.87
2023-04-09T20:44:25.878Z,1022.8
2023-04-09T21:42:11.313Z,1022.71
2023-04-09T22:10:57.242Z,1022.71
2023-04-09T22:39:48.586Z,1022.71
2023-04-09T23:08:44.847Z,1022.72
2023-04-09T23:37:43.385Z,1022.72
